Time;durP1;ratioP1;P1;durP2;ratioP2;P2;SDS_P1;SDS_P2;PMS_P1;PMS_P2;Temp;Humidity;BMP_temperature;BMP_pressure;BME280_temperature;BME280_humidity;BME280_pressure;Samples;Min_cycle;Max_cycle;Signal;HPM_P1;HPM_P2
2022/10/24 00:00:57;;;;;;;;;;;;;;;14.59;100.00;100321.31;5036084;28;20311;-45
2022/10/24 00:03:22;;;;;;;;;;;;;;;14.58;100.00;100315.09;5037715;28;20369;-42
2022/10/24 00:05:48;;;;;;;;;;;;;;;14.58;100.00;100308.84;5034638;28;19917;-47
2022/10/24 00:08:14;;;;;;;;;;;;;;;14.60;100.00;100306.84;5036345;28;19933;-46
2022/10/24 00:10:43;;;;;;;;;;;;;;;14.62;100.00;100308.28;5037276;28;19921;-47
2022/10/24 00:13:09;;;;;;;;;;;;;;;14.64;100.00;100318.84;5036779;28;20334;-44
2022/10/24 00:15:34;;;;;;;;;;;;;;;14.73;100.00;100294.28;5036675;28;19921;-44
2022/10/24 00:17:59;;;;;;;;;;;;;;;14.80;100.00;100301.53;5037292;28;20271;-45
2022/10/24 00:20:25;;;;;;;;;;;;;;;14.82;100.00;100292.25;5030574;28;19959;-45
2022/10/24 00:22:50;;;;;;;;;;;;;;;14.87;100.00;100300.53;5022060;28;20008;-45
2022/10/24 00:25:15;;;;;;;;;;;;;;;14.91;100.00;100298.25;5037096;28;19913;-43
2022/10/24 00:27:40;;;;;;;;;;;;;;;14.90;100.00;100302.81;5020762;28;19917;-44
2022/10/24 00:30:06;;;;;;;;;;;;;;;14.89;100.00;100298.47;5036604;28;19916;-46
2022/10/24 00:32:31;;;;;;;;;;;;;;;14.91;100.00;100304.44;5037992;28;19943;-46
2022/10/24 00:34:56;;;;;;;;;;;;;;;14.97;100.00;100302.84;5034793;28;20363;-46
2022/10/24 00:37:21;;;;;;;;;;;;;;;14.97;100.00;100301.97;5037304;28;19939;-43
2022/10/24 00:39:47;;;;;;;;;;;;;;;14.95;100.00;100296.81;5036535;28;19921;-46
2022/10/24 00:42:12;;;;;;;;;;;;;;;14.94;100.00;100300.53;5033981;28;19968;-43
2022/10/24 00:44:38;;;;;;;;;;;;;;;14.90;100.00;100286.69;5036327;28;20426;-45
2022/10/24 00:47:06;;;;;;;;;;;;;;;14.96;100.00;100292.28;5020402;28;19925;-45
2022/10/24 00:49:51;;;;;;;;;;;;;;;14.99;100.00;100292.69;5027974;28;20171;-47
2022/10/24 00:52:19;;;;;;;;;;;;;;;15.03;100.00;100285.88;5031709;28;19927;-44
2022/10/24 00:54:44;;;;;;;;;;;;;;;15.06;100.00;100293.53;5036472;28;19944;-46
2022/10/24 00:57:20;;;;;;;;;;;;;;;15.02;100.00;100291.44;5037464;28;20320;-46
2022/10/24 00:59:48;;;;;;;;;;;;;;;14.99;100.00;100281.13;5035414;28;19921;-45
2022/10/24 01:02:13;;;;;;;;;;;;;;;14.94;100.00;100278.22;5036166;28;19917;-46
2022/10/24 01:04:38;;;;;;;;;;;;;;;14.90;100.00;100273.25;5035466;28;20445;-44
2022/10/24 01:07:09;;;;;;;;;;;;;;;14.86;100.00;100276.53;5036394;28;20024;-44
2022/10/24 01:09:55;;;;;;;;;;;;;;;14.89;100.00;100281.50;5033276;28;19910;-43
2022/10/24 01:12:32;;;;;;;;;;;;;;;14.92;100.00;100281.94;5030347;28;20663;-47
2022/10/24 01:15:07;;;;;;;;;;;;;;;14.92;100.00;100283.78;5009671;28;22947;-43
2022/10/24 01:17:41;;;;;;;;;;;;;;;14.91;100.00;100274.88;5038908;28;19975;-44
2022/10/24 01:20:22;;;;;;;;;;;;;;;14.95;100.00;100283.34;5030122;28;20496;-45
2022/10/24 01:22:56;;;;;;;;;;;;;;;14.96;100.00;100278.84;5040557;28;19917;-44
2022/10/24 01:25:32;;;;;;;;;;;;;;;14.91;100.00;100271.38;5039609;28;20254;-44
2022/10/24 01:28:10;;;;;;;;;;;;;;;14.94;100.00;100279.03;5040199;28;20338;-43
2022/10/24 01:30:44;;;;;;;;;;;;;;;14.91;100.00;100266.00;5039582;28;20035;-46
2022/10/24 01:33:14;;;;;;;;;;;;;;;14.94;100.00;100272.84;5040681;28;19948;-47
2022/10/24 01:35:39;;;;;;;;;;;;;;;14.89;100.00;100266.19;5038193;28;20249;-45
2022/10/24 01:38:13;;;;;;;;;;;;;;;14.91;100.00;100271.38;5040567;28;20054;-46
2022/10/24 01:40:44;;;;;;;;;;;;;;;14.95;100.00;100277.16;5038916;28;19921;-44
2022/10/24 01:43:10;;;;;;;;;;;;;;;14.94;100.00;100273.66;5022076;28;19917;-44
2022/10/24 01:45:37;;;;;;;;;;;;;;;14.97;100.00;100270.56;5027427;28;19912;-45
2022/10/24 01:48:06;;;;;;;;;;;;;;;15.03;100.00;100269.72;5027963;28;20348;-44
2022/10/24 01:50:33;;;;;;;;;;;;;;;15.02;100.00;100265.41;5036594;28;19928;-46
2022/10/24 01:52:59;;;;;;;;;;;;;;;15.13;100.00;100263.13;5040035;28;19920;-45
2022/10/24 01:55:24;;;;;;;;;;;;;;;15.15;100.00;100259.19;5021478;28;19943;-47
2022/10/24 01:57:50;;;;;;;;;;;;;;;15.21;100.00;100244.94;5038791;28;20348;-47
2022/10/24 02:00:17;;;;;;;;;;;;;;;15.20;100.00;100251.34;5023156;28;19924;-42
2022/10/24 02:02:45;;;;;;;;;;;;;;;15.15;100.00;100240.38;5038804;28;19921;-43
2022/10/24 02:05:14;;;;;;;;;;;;;;;15.12;100.00;100254.22;5037320;28;19920;-43
2022/10/24 02:07:41;;;;;;;;;;;;;;;15.10;100.00;100242.84;5039970;28;20076;-46
2022/10/24 02:10:08;;;;;;;;;;;;;;;15.10;100.00;100257.16;5039547;28;19913;-48
2022/10/24 02:12:36;;;;;;;;;;;;;;;15.16;100.00;100249.28;5037853;28;20410;-47
2022/10/24 02:15:07;;;;;;;;;;;;;;;15.20;100.00;100254.03;5037965;28;20375;-44
2022/10/24 02:17:33;;;;;;;;;;;;;;;15.17;100.00;100250.91;5039295;28;20382;-45
2022/10/24 02:19:58;;;;;;;;;;;;;;;15.15;100.00;100256.50;5033014;28;19920;-45
2022/10/24 02:22:29;;;;;;;;;;;;;;;15.13;100.00;100249.69;5039194;28;20033;-46
2022/10/24 02:25:09;;;;;;;;;;;;;;;15.17;100.00;100257.13;5038093;28;20088;-47
2022/10/24 02:27:54;;;;;;;;;;;;;;;15.19;100.00;100249.69;5036099;28;20311;-44
2022/10/24 02:30:21;;;;;;;;;;;;;;;15.28;100.00;100251.13;5036642;28;20011;-42
2022/10/24 02:32:55;;;;;;;;;;;;;;;15.29;100.00;100251.94;5039495;28;20055;-48
2022/10/24 02:35:23;;;;;;;;;;;;;;;15.32;100.00;100246.16;5022603;28;19912;-46
2022/10/24 02:37:50;;;;;;;;;;;;;;;15.36;100.00;100247.41;5037836;28;19939;-44
2022/10/24 02:40:17;;;;;;;;;;;;;;;15.32;100.00;100243.47;5038529;28;19993;-45
2022/10/24 02:42:43;;;;;;;;;;;;;;;15.30;100.00;100249.06;5038976;28;19913;-43
2022/10/24 02:45:10;;;;;;;;;;;;;;;15.35;100.00;100253.00;5037996;28;19916;-43
2022/10/24 02:47:36;;;;;;;;;;;;;;;15.40;100.00;100253.22;5032129;28;19913;-46
2022/10/24 02:50:02;;;;;;;;;;;;;;;15.40;100.00;100256.72;5036265;28;19921;-43
2022/10/24 02:52:29;;;;;;;;;;;;;;;15.40;100.00;100262.09;5038654;28;19923;-45
2022/10/24 02:54:54;;;;;;;;;;;;;;;15.40;100.00;100251.34;5035571;28;20669;-45
2022/10/24 02:57:20;;;;;;;;;;;;;;;15.39;100.00;100260.44;5034679;28;20304;-48
2022/10/24 02:59:45;;;;;;;;;;;;;;;15.40;100.00;100261.28;5036880;28;19917;-46
2022/10/24 03:02:11;;;;;;;;;;;;;;;15.34;100.00;100264.78;5032627;28;19924;-43
2022/10/24 03:04:36;;;;;;;;;;;;;;;15.31;100.00;100257.97;5036586;28;19924;-47
2022/10/24 03:07:01;;;;;;;;;;;;;;;15.29;100.00;100263.56;5037453;28;19920;-43
2022/10/24 03:09:26;;;;;;;;;;;;;;;15.26;100.00;100261.28;5037996;28;19924;-44
2022/10/24 03:11:51;;;;;;;;;;;;;;;15.27;100.00;100254.88;5038026;28;19924;-45
2022/10/24 03:14:17;;;;;;;;;;;;;;;15.33;100.00;100244.31;5037889;28;20401;-42
2022/10/24 03:16:42;;;;;;;;;;;;;;;15.43;100.00;100259.00;5037766;28;19916;-43
2022/10/24 03:19:07;;;;;;;;;;;;;;;15.44;100.00;100265.22;5038113;28;19917;-45
2022/10/24 03:21:32;;;;;;;;;;;;;;;15.41;100.00;100261.09;5036060;28;20049;-42
2022/10/24 03:23:57;;;;;;;;;;;;;;;15.47;100.00;100256.72;5037041;28;19916;-43
2022/10/24 03:26:22;;;;;;;;;;;;;;;15.40;100.00;100245.13;5036394;28;20383;-45
2022/10/24 03:28:48;;;;;;;;;;;;;;;15.38;100.00;100266.06;5038131;28;20182;-47
2022/10/24 03:31:13;;;;;;;;;;;;;;;15.44;100.00;100249.06;5036540;28;19942;-43
2022/10/24 03:33:38;;;;;;;;;;;;;;;15.48;100.00;100251.13;5034285;28;19921;-44
2022/10/24 03:36:04;;;;;;;;;;;;;;;15.49;100.00;100249.25;5035867;28;20063;-43
2022/10/24 03:38:29;;;;;;;;;;;;;;;15.46;100.00;100247.84;5036756;28;20131;-43
2022/10/24 03:40:54;;;;;;;;;;;;;;;15.48;100.00;100247.63;5036438;28;20769;-45
2022/10/24 03:43:20;;;;;;;;;;;;;;;15.54;100.00;100254.84;5038137;28;19912;-47
2022/10/24 03:45:45;;;;;;;;;;;;;;;15.56;100.00;100239.31;5037244;28;20333;-46
2022/10/24 03:48:11;;;;;;;;;;;;;;;15.57;100.00;100235.59;5024239;28;19920;-43
2022/10/24 03:50:36;;;;;;;;;;;;;;;15.51;100.00;100233.72;5036558;28;19990;-46
2022/10/24 03:53:01;;;;;;;;;;;;;;;15.46;100.00;100230.84;5038372;28;19913;-45
2022/10/24 03:55:27;;;;;;;;;;;;;;;15.40;100.00;100240.56;5036972;28;19920;-43
2022/10/24 03:57:52;;;;;;;;;;;;;;;15.38;100.00;100236.47;5034753;28;20382;-46
2022/10/24 04:00:18;;;;;;;;;;;;;;;15.32;100.00;100237.28;5036994;28;19924;-47
2022/10/24 04:02:44;;;;;;;;;;;;;;;15.24;100.00;100235.59;5037726;28;19913;-44
2022/10/24 04:05:10;;;;;;;;;;;;;;;15.16;100.00;100236.66;5036750;28;19917;-43
2022/10/24 04:07:35;;;;;;;;;;;;;;;15.06;100.00;100230.84;5037065;28;19917;-45
2022/10/24 04:10:00;;;;;;;;;;;;;;;15.00;100.00;100228.97;5037390;28;19917;-45
2022/10/24 04:12:26;;;;;;;;;;;;;;;14.98;100.00;100228.38;5036882;28;20395;-44
2022/10/24 04:14:51;;;;;;;;;;;;;;;15.02;100.00;100237.66;5036516;28;19925;-44
2022/10/24 04:17:16;;;;;;;;;;;;;;;14.99;100.00;100241.59;5037962;28;19992;-47
2022/10/24 04:19:41;;;;;;;;;;;;;;;15.15;100.00;100229.59;5035556;28;19968;-45
2022/10/24 04:22:06;;;;;;;;;;;;;;;15.26;100.00;100231.69;5037868;28;20358;-47
2022/10/24 04:24:32;;;;;;;;;;;;;;;15.25;100.00;100227.34;5037339;28;19920;-45
2022/10/24 04:26:57;;;;;;;;;;;;;;;15.20;100.00;100232.50;5036950;28;19936;-47
2022/10/24 04:29:22;;;;;;;;;;;;;;;15.15;100.00;100234.16;5031370;28;19913;-48
2022/10/24 04:31:47;;;;;;;;;;;;;;;15.12;100.00;100227.31;5036902;28;19923;-43
2022/10/24 04:34:13;;;;;;;;;;;;;;;15.09;100.00;100225.06;5035738;28;19978;-42
2022/10/24 04:36:38;;;;;;;;;;;;;;;15.10;100.00;100238.31;5036065;28;19963;-45
2022/10/24 04:39:03;;;;;;;;;;;;;;;15.14;100.00;100225.28;5036241;28;20325;-48
2022/10/24 04:41:28;;;;;;;;;;;;;;;15.16;100.00;100228.59;5036827;28;19921;-46
2022/10/24 04:43:53;;;;;;;;;;;;;;;15.21;100.00;100234.16;5036885;28;20023;-44
2022/10/24 04:46:19;;;;;;;;;;;;;;;15.23;100.00;100232.09;5041530;28;20010;-46
2022/10/24 04:48:44;;;;;;;;;;;;;;;15.20;100.00;100237.88;5032683;28;19924;-44
2022/10/24 04:51:10;;;;;;;;;;;;;;;15.19;100.00;100240.78;5030260;28;20015;-44
2022/10/24 04:53:35;;;;;;;;;;;;;;;15.24;100.00;100232.91;5038946;28;20406;-42
2022/10/24 04:56:00;;;;;;;;;;;;;;;15.30;100.00;100237.47;5039593;28;19929;-46
2022/10/24 04:58:25;;;;;;;;;;;;;;;15.29;100.00;100228.59;5039377;28;19943;-46
2022/10/24 05:00:51;;;;;;;;;;;;;;;15.26;100.00;100231.69;5037782;28;20326;-44
2022/10/24 05:03:17;;;;;;;;;;;;;;;15.24;100.00;100244.53;5040433;28;19947;-45
2022/10/24 05:05:42;;;;;;;;;;;;;;;15.21;100.00;100244.13;5037104;28;19917;-44
2022/10/24 05:08:07;;;;;;;;;;;;;;;15.25;100.00;100250.72;5040892;28;19920;-45
2022/10/24 05:10:32;;;;;;;;;;;;;;;15.28;100.00;100247.63;5038316;28;19929;-45
2022/10/24 05:12:58;;;;;;;;;;;;;;;15.28;100.00;100231.47;5035356;28;20019;-45
2022/10/24 05:15:23;;;;;;;;;;;;;;;15.26;100.00;100237.06;5036768;28;19931;-44
2022/10/24 05:17:48;;;;;;;;;;;;;;;15.28;100.00;100237.69;5040059;28;20363;-47
2022/10/24 05:20:13;;;;;;;;;;;;;;;15.29;100.00;100247.41;5035076;28;19921;-44
2022/10/24 05:22:39;;;;;;;;;;;;;;;15.28;100.00;100259.19;5038404;28;19931;-44
2022/10/24 05:25:05;;;;;;;;;;;;;;;15.36;100.00;100244.72;5035190;28;19931;-43
2022/10/24 05:27:30;;;;;;;;;;;;;;;15.40;100.00;100256.72;5038439;28;19921;-43
2022/10/24 05:29:55;;;;;;;;;;;;;;;15.44;100.00;100249.06;5038184;28;20484;-43
2022/10/24 05:32:21;;;;;;;;;;;;;;;15.42;100.00;100254.66;5039556;28;19959;-47
2022/10/24 05:34:46;;;;;;;;;;;;;;;15.40;100.00;100253.22;5030630;28;20180;-43
2022/10/24 05:37:12;;;;;;;;;;;;;;;15.34;100.00;100254.84;5038069;28;19917;-45
2022/10/24 05:39:37;;;;;;;;;;;;;;;15.36;100.00;100258.19;5039156;28;19921;-46
2022/10/24 05:42:02;;;;;;;;;;;;;;;15.39;100.00;100262.31;5028130;28;19952;-45
2022/10/24 05:44:27;;;;;;;;;;;;;;;15.41;100.00;100254.84;5035065;28;20334;-48
2022/10/24 05:46:53;;;;;;;;;;;;;;;15.41;100.00;100253.00;5033929;28;19925;-46
2022/10/24 05:49:18;;;;;;;;;;;;;;;15.41;100.00;100252.16;5036910;28;20292;-46
2022/10/24 05:51:43;;;;;;;;;;;;;;;15.39;100.00;100263.13;5037199;28;20375;-45
2022/10/24 05:54:09;;;;;;;;;;;;;;;15.39;100.00;100267.69;5039447;28;20524;-48
2022/10/24 05:56:34;;;;;;;;;;;;;;;15.36;100.00;100258.19;5036627;28;19920;-45
2022/10/24 05:58:59;;;;;;;;;;;;;;;15.30;100.00;100254.44;5021140;28;20454;-47
2022/10/24 06:01:24;;;;;;;;;;;;;;;15.28;100.00;100259.19;5038846;28;19917;-47
2022/10/24 06:03:50;;;;;;;;;;;;;;;15.24;100.00;100255.28;5037865;28;20348;-44
2022/10/24 06:06:15;;;;;;;;;;;;;;;15.25;100.00;100256.91;5035452;28;19968;-46
2022/10/24 06:08:40;;;;;;;;;;;;;;;15.26;100.00;100258.59;5039560;28;20210;-44
2022/10/24 06:11:08;;;;;;;;;;;;;;;15.25;100.00;100261.47;5038296;28;20375;-45
2022/10/24 06:13:33;;;;;;;;;;;;;;;15.24;100.00;100262.50;5016820;28;20015;-46
2022/10/24 06:15:58;;;;;;;;;;;;;;;15.20;100.00;100275.53;5020212;28;19999;-44
2022/10/24 06:18:24;;;;;;;;;;;;;;;15.21;100.00;100271.84;5035516;28;19921;-45
2022/10/24 06:20:49;;;;;;;;;;;;;;;15.20;100.00;100272.84;5035437;28;20370;-44
2022/10/24 06:23:14;;;;;;;;;;;;;;;15.21;100.00;100266.44;5038751;28;19936;-45
2022/10/24 06:25:40;;;;;;;;;;;;;;;15.17;100.00;100286.72;5029772;28;19916;-44
2022/10/24 06:28:06;;;;;;;;;;;;;;;15.19;100.00;100278.44;5024812;28;19925;-46
2022/10/24 06:30:31;;;;;;;;;;;;;;;15.21;100.00;100284.47;5037468;28;20164;-44
2022/10/24 06:32:56;;;;;;;;;;;;;;;15.26;100.00;100295.44;5036106;28;20551;-46
2022/10/24 06:35:22;;;;;;;;;;;;;;;15.22;100.00;100286.94;5032960;28;20038;-45
2022/10/24 06:37:47;;;;;;;;;;;;;;;15.23;100.00;100295.84;5034382;28;19921;-45
2022/10/24 06:40:12;;;;;;;;;;;;;;;15.25;100.00;100296.47;5030068;28;20210;-43
2022/10/24 06:42:37;;;;;;;;;;;;;;;15.22;100.00;100299.56;5038255;28;20265;-47
2022/10/24 06:45:02;;;;;;;;;;;;;;;15.16;100.00;100303.06;5037822;28;19917;-46
2022/10/24 06:47:28;;;;;;;;;;;;;;;15.10;100.00;100304.69;5037579;28;20388;-46
2022/10/24 06:49:53;;;;;;;;;;;;;;;15.10;100.00;100313.63;5032207;28;20333;-43
2022/10/24 06:52:18;;;;;;;;;;;;;;;15.09;100.00;100313.81;5038165;28;20193;-43
2022/10/24 06:54:43;;;;;;;;;;;;;;;15.07;100.00;100305.09;5037370;28;20674;-47
2022/10/24 06:57:08;;;;;;;;;;;;;;;15.05;100.00;100324.16;5038456;28;20340;-44
2022/10/24 06:59:34;;;;;;;;;;;;;;;15.03;100.00;100322.69;5037777;28;20046;-45
2022/10/24 07:01:59;;;;;;;;;;;;;;;15.00;100.00;100329.28;5037430;28;20055;-47
2022/10/24 07:04:24;;;;;;;;;;;;;;;15.01;100.00;100325.59;5035523;28;19921;-45
2022/10/24 07:06:49;;;;;;;;;;;;;;;15.00;100.00;100345.44;5018778;28;20363;-47
2022/10/24 07:09:16;;;;;;;;;;;;;;;15.04;100.00;100343.19;5020078;28;19920;-45
2022/10/24 07:11:41;;;;;;;;;;;;;;;15.08;100.00;100331.81;5032689;28;20276;-44
2022/10/24 07:14:08;;;;;;;;;;;;;;;15.07;100.00;100337.38;5034992;28;20398;-42
2022/10/24 07:16:33;;;;;;;;;;;;;;;15.06;100.00;100336.56;5036719;28;19966;-47
2022/10/24 07:18:58;;;;;;;;;;;;;;;15.04;100.00;100345.88;5028958;28;19916;-48
2022/10/24 07:21:25;;;;;;;;;;;;;;;15.03;100.00;100338.84;5035853;28;20027;-43
2022/10/24 07:23:51;;;;;;;;;;;;;;;14.95;100.00;100345.22;5019092;28;19916;-46
2022/10/24 07:26:17;;;;;;;;;;;;;;;15.01;100.00;100363.22;5036699;28;20210;-44
2022/10/24 07:28:45;;;;;;;;;;;;;;;15.06;100.00;100365.31;5037828;28;19921;-47
2022/10/24 07:31:13;;;;;;;;;;;;;;;15.15;100.00;100369.47;5015719;28;19913;-43
2022/10/24 07:33:38;;;;;;;;;;;;;;;15.26;100.00;100368.88;5033266;28;20007;-48
2022/10/24 07:36:04;;;;;;;;;;;;;;;15.36;100.00;100376.56;5035128;28;20470;-46
2022/10/24 07:38:29;;;;;;;;;;;;;;;15.39;100.00;100375.31;5038071;28;20517;-47
2022/10/24 07:40:54;;;;;;;;;;;;;;;15.36;100.00;100390.03;5037163;28;20340;-44
2022/10/24 07:43:20;;;;;;;;;;;;;;;15.34;100.00;100383.19;5037670;28;19912;-46
2022/10/24 07:45:45;;;;;;;;;;;;;;;15.34;100.00;100391.25;5034924;28;19921;-43
2022/10/24 07:48:10;;;;;;;;;;;;;;;15.43;100.00;100385.47;5031800;28;20554;-43
2022/10/24 07:50:41;;;;;;;;;;;;;;;15.46;100.00;100403.06;5034901;28;19916;-44
2022/10/24 07:53:06;;;;;;;;;;;;;;;15.42;100.00;100399.97;5036543;28;19916;-43
2022/10/24 07:55:31;;;;;;;;;;;;;;;15.42;100.00;100413.41;5035344;28;19920;-42
2022/10/24 07:57:56;;;;;;;;;;;;;;;15.40;100.00;100415.50;5035940;28;20427;-43
2022/10/24 08:00:22;;;;;;;;;;;;;;;15.33;100.00;100419.22;5035999;28;19913;-42
2022/10/24 08:02:47;;;;;;;;;;;;;;;15.24;100.00;100424.75;5036350;28;20011;-44
2022/10/24 08:05:12;;;;;;;;;;;;;;;15.22;100.00;100412.53;5033751;28;19917;-43
2022/10/24 08:07:37;;;;;;;;;;;;;;;15.30;100.00;100426.63;5036008;28;20422;-48
2022/10/24 08:10:03;;;;;;;;;;;;;;;15.36;100.00;100426.84;5035020;28;20702;-47
2022/10/24 08:12:28;;;;;;;;;;;;;;;15.44;100.00;100427.53;5034001;28;20431;-43
2022/10/24 08:14:54;;;;;;;;;;;;;;;15.46;100.00;100435.38;5030435;28;20004;-47
2022/10/24 08:17:22;;;;;;;;;;;;;;;15.45;100.00;100423.78;5029832;28;19943;-47
2022/10/24 08:19:47;;;;;;;;;;;;;;;15.42;100.00;100432.25;5028287;28;19913;-43
2022/10/24 08:22:12;;;;;;;;;;;;;;;15.37;100.00;100445.47;5035926;28;19913;-44
2022/10/24 08:24:37;;;;;;;;;;;;;;;15.37;100.00;100450.88;5035397;28;19913;-45
2022/10/24 08:27:02;;;;;;;;;;;;;;;15.27;100.00;100431.59;5031759;28;19964;-45
2022/10/24 08:29:28;;;;;;;;;;;;;;;15.29;100.00;100440.28;5038499;28;20375;-43
2022/10/24 08:31:54;;;;;;;;;;;;;;;15.30;100.00;100466.97;5033059;28;20011;-43
2022/10/24 08:34:20;;;;;;;;;;;;;;;15.39;100.00;100431.84;5037883;28;19923;-47
2022/10/24 08:36:46;;;;;;;;;;;;;;;15.40;100.00;100450.47;5030275;28;19916;-45
2022/10/24 08:39:12;;;;;;;;;;;;;;;15.38;100.00;100455.22;5038438;28;19917;-43
2022/10/24 08:41:45;;;;;;;;;;;;;;;15.44;100.00;100454.44;5039253;28;20306;-45
2022/10/24 08:44:28;;;;;;;;;;;;;;;15.50;100.00;100450.09;5039096;28;20217;-43
2022/10/24 08:47:14;;;;;;;;;;;;;;;15.58;100.00;100438.28;5038335;28;19963;-42
2022/10/24 08:49:39;;;;;;;;;;;;;;;15.61;100.00;100444.13;4996583;28;20293;-43
2022/10/24 08:52:22;;;;;;;;;;;;;;;15.68;100.00;100438.72;5037926;28;19944;-46
2022/10/24 08:54:49;;;;;;;;;;;;;;;15.73;100.00;100441.63;5033016;28;19919;-42
2022/10/24 08:57:18;;;;;;;;;;;;;;;15.80;100.00;100449.75;5036579;28;19909;-45
2022/10/24 08:59:43;;;;;;;;;;;;;;;15.84;100.00;100454.53;5039083;28;19920;-45
2022/10/24 09:02:21;;;;;;;;;;;;;;;15.91;100.00;100459.91;5032969;28;20400;-46
2022/10/24 09:04:50;;;;;;;;;;;;;;;15.95;100.00;100471.94;5035713;28;20376;-46
2022/10/24 09:07:17;;;;;;;;;;;;;;;16.01;100.00;100459.53;5037930;28;19928;-45
2022/10/24 09:09:45;;;;;;;;;;;;;;;16.04;100.00;100468.00;5038049;28;20324;-45
2022/10/24 09:12:12;;;;;;;;;;;;;;;16.11;100.00;100478.78;5020618;28;20383;-44
2022/10/24 09:14:39;;;;;;;;;;;;;;;16.14;100.00;100482.91;5038489;28;19912;-45
2022/10/24 09:17:13;;;;;;;;;;;;;;;16.17;100.00;100474.44;5035532;28;20077;-43
2022/10/24 09:19:38;;;;;;;;;;;;;;;16.21;100.00;100489.16;5024101;28;20247;-46
2022/10/24 09:22:05;;;;;;;;;;;;;;;16.26;100.00;100485.81;4999711;28;20003;-45
2022/10/24 09:24:39;;;;;;;;;;;;;;;16.32;100.00;100487.69;5019413;28;19924;-43
2022/10/24 09:27:08;;;;;;;;;;;;;;;16.35;100.00;100488.09;5036503;28;19917;-46
2022/10/24 09:29:34;;;;;;;;;;;;;;;16.43;100.00;100500.56;5027527;28;20073;-41
2022/10/24 09:32:00;;;;;;;;;;;;;;;16.46;100.00;100486.66;5034665;28;19982;-42
2022/10/24 09:34:25;;;;;;;;;;;;;;;16.51;100.00;100486.03;5029879;28;20008;-42
2022/10/24 09:36:50;;;;;;;;;;;;;;;16.54;100.00;100499.09;5031424;28;19913;-45
2022/10/24 09:39:33;;;;;;;;;;;;;;;16.60;100.00;100500.97;5025065;28;19932;-42
2022/10/24 09:41:59;;;;;;;;;;;;;;;16.78;100.00;100520.03;5037250;28;20394;-44
2022/10/24 09:44:31;;;;;;;;;;;;;;;16.95;99.84;100503.41;5037756;28;19913;-46
2022/10/24 09:46:57;;;;;;;;;;;;;;;17.06;100.00;100499.25;5034926;28;19917;-46
2022/10/24 09:49:24;;;;;;;;;;;;;;;17.24;98.94;100512.84;5036785;28;19979;-42
2022/10/24 09:52:00;;;;;;;;;;;;;;;17.37;100.00;100505.75;5034917;28;19916;-43
2022/10/24 09:54:28;;;;;;;;;;;;;;;17.46;99.08;100521.47;5020122;28;20371;-43
2022/10/24 09:56:56;;;;;;;;;;;;;;;17.39;97.87;100515.28;5037372;28;19920;-46
2022/10/24 09:59:24;;;;;;;;;;;;;;;17.45;97.68;100519.03;5037705;28;19920;-43
2022/10/24 10:01:49;;;;;;;;;;;;;;;17.53;97.18;100522.28;5031958;28;20368;-42
2022/10/24 10:04:15;;;;;;;;;;;;;;;17.66;94.51;100517.88;5030987;28;19917;-42
2022/10/24 10:06:44;;;;;;;;;;;;;;;17.69;95.18;100533.66;5034179;28;20367;-42
2022/10/24 10:09:11;;;;;;;;;;;;;;;17.66;95.19;100534.06;5019074;28;19920;-43
2022/10/24 10:11:36;;;;;;;;;;;;;;;17.62;93.00;100532.84;5030547;28;19947;-46
2022/10/24 10:14:02;;;;;;;;;;;;;;;17.68;93.31;100538.22;5036321;28;19913;-48
2022/10/24 10:16:29;;;;;;;;;;;;;;;17.73;94.61;100544.84;5014286;28;19917;-44
2022/10/24 10:19:06;;;;;;;;;;;;;;;17.98;92.87;100542.25;5035996;28;19924;-45
2022/10/24 10:21:50;;;;;;;;;;;;;;;18.26;91.69;100555.34;5036542;28;20428;-44
2022/10/24 10:24:23;;;;;;;;;;;;;;;18.32;90.99;100554.47;5036636;28;20130;-44
2022/10/24 10:26:48;;;;;;;;;;;;;;;18.20;91.42;100557.06;5007822;28;20470;-44
2022/10/24 10:29:17;;;;;;;;;;;;;;;18.18;90.71;100569.97;5029363;28;19916;-47
2022/10/24 10:31:47;;;;;;;;;;;;;;;18.21;90.88;100557.88;5030519;28;19916;-43
2022/10/24 10:34:29;;;;;;;;;;;;;;;18.38;91.30;100560.88;5022077;28;19917;-44
2022/10/24 10:37:13;;;;;;;;;;;;;;;18.57;89.66;100564.47;5011149;28;19928;-43
2022/10/24 10:39:57;;;;;;;;;;;;;;;18.49;92.05;100567.47;5028349;28;20017;-45
2022/10/24 10:42:32;;;;;;;;;;;;;;;18.53;91.36;100572.19;5036998;28;19919;-48
2022/10/24 10:45:04;;;;;;;;;;;;;;;18.47;89.84;100575.78;5036826;28;20364;-48
2022/10/24 10:47:41;;;;;;;;;;;;;;;18.44;91.22;100587.03;5031847;28;19912;-42
2022/10/24 10:50:26;;;;;;;;;;;;;;;18.39;89.35;100589.56;5033993;28;19920;-42
2022/10/24 10:52:54;;;;;;;;;;;;;;;18.54;89.12;100583.84;5036006;28;20506;-43
2022/10/24 10:55:38;;;;;;;;;;;;;;;18.83;90.41;100590.50;5036075;28;20535;-44
2022/10/24 10:58:06;;;;;;;;;;;;;;;19.13;86.19;100587.09;5036676;28;20418;-45
2022/10/24 11:00:44;;;;;;;;;;;;;;;19.12;89.08;100588.13;5035723;28;19972;-48
2022/10/24 11:03:16;;;;;;;;;;;;;;;19.16;86.39;100619.97;5031701;28;20384;-42
2022/10/24 11:06:00;;;;;;;;;;;;;;;19.05;84.39;100598.22;5006289;28;19913;-46
2022/10/24 11:08:25;;;;;;;;;;;;;;;18.83;85.38;100590.50;5021818;28;19923;-47
2022/10/24 11:10:52;;;;;;;;;;;;;;;18.62;85.50;100600.63;5026070;28;19921;-43
2022/10/24 11:13:21;;;;;;;;;;;;;;;18.54;86.43;100609.00;5036438;28;19951;-43
2022/10/24 11:15:49;;;;;;;;;;;;;;;18.45;86.01;100600.34;5035803;28;19932;-44
2022/10/24 11:18:29;;;;;;;;;;;;;;;18.57;88.54;100607.75;5028346;28;19991;-47
2022/10/24 11:20:56;;;;;;;;;;;;;;;18.86;87.28;100600.06;5034099;28;19925;-45
2022/10/24 11:23:26;;;;;;;;;;;;;;;18.78;87.67;100585.72;5028262;28;20557;-43
2022/10/24 11:25:56;;;;;;;;;;;;;;;18.72;87.59;100600.16;5035902;28;19966;-44
2022/10/24 11:28:30;;;;;;;;;;;;;;;18.65;89.93;100615.56;5036573;28;19929;-48
2022/10/24 11:30:58;;;;;;;;;;;;;;;18.59;90.67;100595.66;5035274;28;19919;-42
2022/10/24 11:33:26;;;;;;;;;;;;;;;18.54;89.90;100605.50;5035312;28;19970;-46
2022/10/24 11:35:59;;;;;;;;;;;;;;;18.30;91.58;100602.53;5016330;28;19999;-46
2022/10/24 11:38:24;;;;;;;;;;;;;;;18.06;92.56;100610.38;5029690;28;19932;-44
2022/10/24 11:40:54;;;;;;;;;;;;;;;17.77;97.33;100608.19;5035188;28;19912;-43
2022/10/24 11:43:27;;;;;;;;;;;;;;;17.41;97.53;100612.25;5035287;28;19913;-45
2022/10/24 11:45:52;;;;;;;;;;;;;;;17.42;97.22;100611.22;5016769;28;19917;-45
2022/10/24 11:48:36;;;;;;;;;;;;;;;17.54;96.65;100623.03;5032199;28;19920;-45
2022/10/24 11:51:07;;;;;;;;;;;;;;;17.70;96.43;100613.59;5026910;28;19917;-47
2022/10/24 11:53:32;;;;;;;;;;;;;;;17.98;95.42;100631.41;5036006;28;19952;-45
2022/10/24 11:55:57;;;;;;;;;;;;;;;18.34;93.69;100629.97;5034895;28;19956;-43
2022/10/24 11:58:24;;;;;;;;;;;;;;;18.49;89.78;100635.06;5035987;28;19921;-44
2022/10/24 12:00:49;;;;;;;;;;;;;;;18.27;90.98;100622.69;5030616;28;19979;-47
2022/10/24 12:03:35;;;;;;;;;;;;;;;18.07;92.52;100630.09;5035426;28;20399;-45
2022/10/24 12:06:03;;;;;;;;;;;;;;;18.02;92.50;100611.00;5018608;28;19952;-44
2022/10/24 12:08:34;;;;;;;;;;;;;;;18.01;92.02;100620.19;5034702;28;20367;-45
2022/10/24 12:10:59;;;;;;;;;;;;;;;18.13;93.04;100626.53;5034815;28;20275;-47
2022/10/24 12:13:43;;;;;;;;;;;;;;;18.23;94.14;100618.78;5029968;28;19923;-46
2022/10/24 12:16:27;;;;;;;;;;;;;;;18.30;91.85;100610.63;5035317;28;19944;-45
2022/10/24 12:18:58;;;;;;;;;;;;;;;18.13;90.68;100623.03;5021151;28;19992;-45
2022/10/24 12:21:26;;;;;;;;;;;;;;;18.01;90.02;100630.97;5032838;28;19920;-45
2022/10/24 12:23:55;;;;;;;;;;;;;;;17.87;92.73;100614.84;5032131;28;20523;-47
2022/10/24 12:26:24;;;;;;;;;;;;;;;17.79;91.46;100646.63;5020943;28;20291;-43
2022/10/24 12:28:54;;;;;;;;;;;;;;;17.83;90.42;100634.34;5033507;28;20007;-42
2022/10/24 12:31:21;;;;;;;;;;;;;;;18.07;89.75;100625.56;5033690;28;19917;-44